createdAt,value
2019-03-30T00:01:24.345Z,2.12
2019-03-30T00:02:58.118Z,2.14
2019-03-30T00:04:31.834Z,2.12
2019-03-30T00:06:07.127Z,2.12
2019-03-30T00:07:40.830Z,2.09
2019-03-30T00:09:14.512Z,2.08
2019-03-30T00:10:48.232Z,2.03
2019-03-30T00:12:23.102Z,2.01
2019-03-30T00:13:56.873Z,1.96
2019-03-30T00:15:30.567Z,1.96
2019-03-30T00:17:04.214Z,1.94
2019-03-30T00:18:41.225Z,1.94
2019-03-30T00:20:14.338Z,1.94
2019-03-30T00:21:48.563Z,1.95
2019-03-30T00:23:22.877Z,1.96
2019-03-30T00:24:57.232Z,2.01
2019-03-30T00:26:31.448Z,2.08
2019-03-30T00:28:05.746Z,2.12
2019-03-30T00:29:41.020Z,2.19
2019-03-30T00:31:15.196Z,2.23
2019-03-30T00:32:48.847Z,2.25
2019-03-30T00:34:22.586Z,2.30
2019-03-30T00:35:56.390Z,2.35
2019-03-30T00:37:30.476Z,2.43
2019-03-30T00:39:06.547Z,2.48
2019-03-30T00:40:40.248Z,2.54
2019-03-30T00:42:14.626Z,2.58
2019-03-30T00:43:48.664Z,2.63
2019-03-30T00:45:22.306Z,2.67
2019-03-30T00:46:55.999Z,2.71
2019-03-30T00:48:29.678Z,2.75
2019-03-30T00:50:04.043Z,2.79
2019-03-30T00:51:37.761Z,2.83
2019-03-30T00:53:11.448Z,2.89
2019-03-30T00:54:45.218Z,2.92
2019-03-30T00:56:19.123Z,2.95
2019-03-30T00:57:54.409Z,2.99
2019-03-30T00:59:28.077Z,3.01
2019-03-30T01:01:01.848Z,3.01
2019-03-30T01:02:38.105Z,3.01
2019-03-30T01:04:11.719Z,2.99
2019-03-30T01:05:45.440Z,2.99
2019-03-30T01:07:19.252Z,2.94
2019-03-30T01:08:53.411Z,2.91
2019-03-30T01:10:27.841Z,2.85
2019-03-30T01:12:01.585Z,2.82
2019-03-30T01:13:35.305Z,2.80
2019-03-30T01:15:09.457Z,2.76
2019-03-30T01:16:43.161Z,2.75
2019-03-30T01:18:16.876Z,2.69
2019-03-30T01:20:02.422Z,2.71
2019-03-30T01:21:26.289Z,2.70
2019-03-30T01:23:00.019Z,2.66
2019-03-30T01:24:33.758Z,2.58
2019-03-30T01:26:08.150Z,2.52
2019-03-30T01:27:42.079Z,2.42
2019-03-30T01:29:15.690Z,2.34
2019-03-30T01:30:49.445Z,2.23
2019-03-30T01:32:23.068Z,2.16
2019-03-30T01:33:57.287Z,2.08
2019-03-30T01:35:30.994Z,1.99
2019-03-30T01:37:04.681Z,1.91
2019-03-30T01:38:38.387Z,1.87
2019-03-30T01:40:12.458Z,1.83
2019-03-30T01:41:46.233Z,1.77
2019-03-30T01:43:19.909Z,1.72
2019-03-30T01:44:53.611Z,1.66
2019-03-30T01:46:27.766Z,1.61
2019-03-30T01:48:01.409Z,1.56
2019-03-30T01:49:35.163Z,1.52
2019-03-30T01:51:10.304Z,1.51
2019-03-30T01:52:44.410Z,1.48
2019-03-30T01:54:18.095Z,1.46
2019-03-30T01:55:51.809Z,1.46
2019-03-30T01:57:25.790Z,1.46
2019-03-30T01:58:59.700Z,1.48
2019-03-30T02:00:33.910Z,1.51
2019-03-30T02:02:07.530Z,1.53
2019-03-30T02:03:41.213Z,1.55
2019-03-30T02:05:15.309Z,1.57
2019-03-30T02:06:49.007Z,1.61
2019-03-30T02:08:22.706Z,1.68
2019-03-30T02:09:57.037Z,1.74
2019-03-30T02:11:31.834Z,1.83
2019-03-30T02:13:06.675Z,1.91
2019-03-30T02:14:40.378Z,1.98
2019-03-30T02:16:14.128Z,2.07
2019-03-30T02:17:48.238Z,2.14
2019-03-30T02:19:22.235Z,2.22
2019-03-30T02:20:55.897Z,2.30
2019-03-30T02:22:29.599Z,2.38
2019-03-30T02:24:03.764Z,2.44
2019-03-30T02:25:37.413Z,2.50
2019-03-30T02:27:11.749Z,2.56
2019-03-30T02:28:45.424Z,2.61
2019-03-30T02:30:19.377Z,2.65
2019-03-30T02:31:53.012Z,2.62
2019-03-30T02:33:27.299Z,2.65
2019-03-30T02:35:00.947Z,2.67
2019-03-30T02:36:35.293Z,2.67
2019-03-30T02:38:09.563Z,2.69
2019-03-30T02:39:43.793Z,2.73
2019-03-30T02:41:17.494Z,2.34
2019-03-30T02:42:51.699Z,2.85
2019-03-30T02:44:25.965Z,2.88
2019-03-30T02:45:59.544Z,2.91
2019-03-30T02:47:33.193Z,2.91
2019-03-30T02:49:07.210Z,2.80
2019-03-30T02:50:50.109Z,2.70
2019-03-30T02:52:16.808Z,2.63
2019-03-30T02:53:50.533Z,2.53
2019-03-30T02:55:24.415Z,2.48
2019-03-30T02:56:59.556Z,2.42
2019-03-30T02:58:33.348Z,2.33
2019-03-30T03:00:09.952Z,2.29
2019-03-30T03:01:43.972Z,2.26
2019-03-30T03:03:17.631Z,2.17
2019-03-30T03:04:51.395Z,2.14
2019-03-30T03:06:25.117Z,2.17
2019-03-30T03:08:00.383Z,2.24
2019-03-30T03:09:34.162Z,2.29
2019-03-30T03:11:07.861Z,2.31
2019-03-30T03:12:41.582Z,2.34
2019-03-30T03:14:16.288Z,2.36
2019-03-30T03:15:50.188Z,2.38
2019-03-30T03:17:25.234Z,2.41
2019-03-30T03:18:59.490Z,2.43
2019-03-30T03:20:33.412Z,2.39
2019-03-30T03:22:07.154Z,2.34
2019-03-30T03:23:40.802Z,2.34
2019-03-30T03:25:14.456Z,2.35
2019-03-30T03:26:48.724Z,2.37
2019-03-30T03:28:22.468Z,2.42
2019-03-30T03:29:56.227Z,2.48
2019-03-30T03:31:30.318Z,2.50
2019-03-30T03:33:04.354Z,2.49
2019-03-30T03:34:38.027Z,2.53
2019-03-30T03:36:11.735Z,2.55
2019-03-30T03:37:46.519Z,2.57
2019-03-30T03:39:21.395Z,2.59
2019-03-30T03:40:55.131Z,2.63
2019-03-30T03:42:28.865Z,2.67
2019-03-30T03:44:02.580Z,2.70
2019-03-30T03:45:36.462Z,2.75
2019-03-30T03:47:10.265Z,2.79
2019-03-30T03:48:44.054Z,2.80
2019-03-30T03:50:43.005Z,2.79
2019-03-30T03:52:17.816Z,2.78
2019-03-30T03:53:51.860Z,2.78
2019-03-30T03:55:25.675Z,2.79
2019-03-30T03:57:00.196Z,2.79
2019-03-30T03:58:36.040Z,2.78
2019-03-30T04:00:10.222Z,2.79
2019-03-30T04:01:45.653Z,2.85
2019-03-30T04:03:21.815Z,2.90
2019-03-30T04:04:56.414Z,2.95
2019-03-30T04:06:32.816Z,3.01
2019-03-30T04:08:08.631Z,3.06
2019-03-30T04:09:45.839Z,3.09
2019-03-30T04:11:22.397Z,3.10
2019-03-30T04:12:58.609Z,3.11
2019-03-30T04:14:35.171Z,3.12
2019-03-30T04:16:09.655Z,3.13
2019-03-30T04:17:43.881Z,3.13
2019-03-30T04:19:17.681Z,3.10
2019-03-30T04:20:51.952Z,3.04
2019-03-30T04:22:25.956Z,3.01
2019-03-30T04:23:59.709Z,3.00
2019-03-30T04:25:33.955Z,2.97
2019-03-30T04:27:07.745Z,2.93
2019-03-30T04:28:42.283Z,2.91
2019-03-30T04:30:16.630Z,2.88
2019-03-30T04:31:51.086Z,2.86
2019-03-30T04:33:25.335Z,2.83
2019-03-30T04:35:00.504Z,2.83
2019-03-30T04:36:34.164Z,2.84
2019-03-30T04:38:08.493Z,2.85
2019-03-30T04:39:42.128Z,2.86
2019-03-30T04:41:16.254Z,2.86
2019-03-30T04:42:49.947Z,2.91
2019-03-30T04:44:23.701Z,2.97
2019-03-30T04:45:57.467Z,3.02
2019-03-30T04:47:31.458Z,3.09
2019-03-30T04:49:05.751Z,3.15
2019-03-30T04:50:40.542Z,3.22
2019-03-30T04:52:14.146Z,3.32
2019-03-30T04:53:48.178Z,3.38
2019-03-30T04:55:21.799Z,3.45
2019-03-30T04:56:55.543Z,3.53
2019-03-30T04:58:29.197Z,3.60
2019-03-30T05:00:03.771Z,3.66
2019-03-30T05:01:37.484Z,3.73
2019-03-30T05:03:11.146Z,3.79
2019-03-30T05:04:45.412Z,3.80
2019-03-30T05:06:19.828Z,3.86
2019-03-30T05:07:53.534Z,3.91
2019-03-30T05:09:27.790Z,3.91
2019-03-30T05:11:02.301Z,3.98
2019-03-30T05:12:36.517Z,4.03
2019-03-30T05:14:10.193Z,3.98
2019-03-30T05:15:43.851Z,3.98
2019-03-30T05:17:18.211Z,4.03
2019-03-30T05:18:52.125Z,4.06
2019-03-30T05:20:26.441Z,4.08
2019-03-30T05:22:11.421Z,4.07
2019-03-30T05:23:35.929Z,4.12
2019-03-30T05:25:09.884Z,4.19
2019-03-30T05:26:44.174Z,4.26
2019-03-30T05:28:18.417Z,3.97
2019-03-30T05:29:52.109Z,4.29
2019-03-30T05:31:26.208Z,4.32
2019-03-30T05:33:06.060Z,4.40
2019-03-30T05:34:36.403Z,4.49
2019-03-30T05:36:10.710Z,4.60
2019-03-30T05:37:45.330Z,4.71
2019-03-30T05:39:19.547Z,4.79
2019-03-30T05:40:53.261Z,4.84
2019-03-30T05:42:27.509Z,4.83
2019-03-30T05:44:01.997Z,4.88
2019-03-30T05:45:36.279Z,4.95
2019-03-30T05:47:10.516Z,4.98
2019-03-30T05:48:44.736Z,5.02
2019-03-30T05:50:18.773Z,5.04
2019-03-30T05:51:53.002Z,5.12
2019-03-30T05:53:27.054Z,5.19
2019-03-30T05:55:01.288Z,5.28
2019-03-30T05:56:35.725Z,5.36
2019-03-30T05:58:09.958Z,5.44
2019-03-30T05:59:44.211Z,5.56
2019-03-30T06:01:18.469Z,5.66
2019-03-30T06:02:52.946Z,5.81
2019-03-30T06:04:28.821Z,5.94
2019-03-30T06:06:03.128Z,6.05
2019-03-30T06:07:37.391Z,6.16
2019-03-30T06:09:12.337Z,6.16
2019-03-30T06:10:46.583Z,6.20
2019-03-30T06:12:20.813Z,6.19
2019-03-30T06:13:55.100Z,6.25
2019-03-30T06:15:29.505Z,6.39
2019-03-30T06:17:03.156Z,6.55
2019-03-30T06:18:38.582Z,6.69
2019-03-30T06:20:12.956Z,6.86
2019-03-30T06:21:47.569Z,6.99
2019-03-30T06:23:21.818Z,7.08
2019-03-30T06:24:56.408Z,7.23
2019-03-30T06:26:30.773Z,7.33
2019-03-30T06:28:05.429Z,7.45
2019-03-30T06:29:39.730Z,7.53
2019-03-30T06:31:13.992Z,7.65
2019-03-30T06:32:48.248Z,7.76
2019-03-30T06:34:22.857Z,7.85
2019-03-30T06:35:57.148Z,7.92
2019-03-30T06:37:31.377Z,8.04
2019-03-30T06:39:06.210Z,8.13
2019-03-30T06:40:40.872Z,8.25
2019-03-30T06:42:15.114Z,8.39
2019-03-30T06:43:49.849Z,8.51
2019-03-30T06:45:24.207Z,8.67
2019-03-30T06:46:58.998Z,8.80
2019-03-30T06:48:35.926Z,8.86
2019-03-30T06:50:10.147Z,8.87
2019-03-30T06:51:44.395Z,8.96
2019-03-30T06:53:18.907Z,8.98
2019-03-30T06:54:53.235Z,9.18
2019-03-30T06:56:27.746Z,9.37
2019-03-30T06:58:02.052Z,9.43
2019-03-30T06:59:36.652Z,9.44
2019-03-30T07:01:11.183Z,9.38
2019-03-30T07:02:45.795Z,9.54
2019-03-30T07:04:20.231Z,9.60
2019-03-30T07:05:55.800Z,9.68
2019-03-30T07:07:30.732Z,9.75
2019-03-30T07:09:06.592Z,9.74
2019-03-30T07:10:40.914Z,9.81
2019-03-30T07:12:17.695Z,9.87
2019-03-30T07:13:54.577Z,9.83
2019-03-30T07:15:31.086Z,9.82
2019-03-30T07:17:06.830Z,9.81
2019-03-30T07:18:43.475Z,9.81
2019-03-30T07:20:26.417Z,9.84
2019-03-30T07:22:00.825Z,9.88
2019-03-30T07:23:35.191Z,9.97
2019-03-30T07:25:09.805Z,10.07
2019-03-30T07:26:44.022Z,9.94
2019-03-30T07:28:18.302Z,9.97
2019-03-30T07:29:52.577Z,9.89
2019-03-30T07:31:27.740Z,9.93
2019-03-30T07:33:02.030Z,10.04
2019-03-30T07:34:36.255Z,9.74
2019-03-30T07:36:10.542Z,10.20
2019-03-30T07:37:44.992Z,10.25
2019-03-30T07:39:18.669Z,10.26
2019-03-30T07:40:52.915Z,10.25
2019-03-30T07:42:27.215Z,10.12
2019-03-30T07:44:02.232Z,9.87
2019-03-30T07:45:36.471Z,9.87
2019-03-30T07:47:10.795Z,9.93
2019-03-30T07:48:45.014Z,9.89
2019-03-30T07:50:20.192Z,9.99
2019-03-30T07:51:54.538Z,9.99
2019-03-30T07:53:28.771Z,10.12
2019-03-30T07:55:03.050Z,10.26
2019-03-30T07:56:37.762Z,10.36
2019-03-30T07:58:11.989Z,10.50
2019-03-30T07:59:46.242Z,10.73
2019-03-30T08:01:22.455Z,10.92
2019-03-30T08:02:56.961Z,10.97
2019-03-30T08:04:31.185Z,10.79
2019-03-30T08:06:05.501Z,10.81
2019-03-30T08:07:39.818Z,10.95
2019-03-30T08:09:14.391Z,11.07
2019-03-30T08:10:48.690Z,11.19
2019-03-30T08:12:23.014Z,11.36
2019-03-30T08:13:57.344Z,11.48
2019-03-30T08:15:31.831Z,11.50
2019-03-30T08:17:06.222Z,11.54
2019-03-30T08:18:40.523Z,11.59
2019-03-30T08:20:15.341Z,11.66
2019-03-30T08:21:49.768Z,11.78
2019-03-30T08:23:24.108Z,11.86
2019-03-30T08:24:58.437Z,12.00
2019-03-30T08:26:35.461Z,12.15
2019-03-30T08:28:09.088Z,12.27
2019-03-30T08:29:43.835Z,12.33
2019-03-30T08:31:20.317Z,12.47
2019-03-30T08:32:54.543Z,12.60
2019-03-30T08:34:29.223Z,12.57
2019-03-30T08:36:03.457Z,12.67
2019-03-30T08:37:37.751Z,12.84
2019-03-30T08:39:12.028Z,12.99
2019-03-30T08:40:46.662Z,13.05
2019-03-30T08:42:21.504Z,12.93
2019-03-30T08:43:55.851Z,12.81
2019-03-30T08:45:30.652Z,12.79
2019-03-30T08:47:05.222Z,12.85
2019-03-30T08:48:39.505Z,12.96
2019-03-30T08:50:14.350Z,13.02
2019-03-30T08:51:48.601Z,13.08
2019-03-30T08:53:23.058Z,13.31
2019-03-30T08:54:57.348Z,13.50
2019-03-30T08:56:31.622Z,13.59
2019-03-30T08:58:05.857Z,13.73
2019-03-30T08:59:40.443Z,13.91
2019-03-30T09:01:14.726Z,14.10
2019-03-30T09:02:48.999Z,14.29
2019-03-30T09:04:23.304Z,14.36
2019-03-30T09:05:57.890Z,14.42
2019-03-30T09:07:32.194Z,14.58
2019-03-30T09:09:08.190Z,14.94
2019-03-30T09:10:42.426Z,15.42
2019-03-30T09:12:17.084Z,15.77
2019-03-30T09:13:51.293Z,15.91
2019-03-30T09:15:25.604Z,16.06
2019-03-30T09:16:59.856Z,16.12
2019-03-30T09:18:34.599Z,16.01
2019-03-30T09:20:08.937Z,15.89
2019-03-30T09:21:44.078Z,15.81
2019-03-30T09:23:18.362Z,16.05
2019-03-30T09:24:52.779Z,16.40
2019-03-30T09:26:27.703Z,16.99
2019-03-30T09:28:02.078Z,17.32
2019-03-30T09:29:36.290Z,17.25
2019-03-30T09:31:10.840Z,17.49
2019-03-30T09:32:45.378Z,17.84
2019-03-30T09:34:19.905Z,18.25
2019-03-30T09:35:54.134Z,18.55
2019-03-30T09:37:28.615Z,18.70
2019-03-30T09:39:04.613Z,18.70
2019-03-30T09:40:40.508Z,18.70
2019-03-30T09:42:14.751Z,18.75
2019-03-30T09:43:51.149Z,18.63
2019-03-30T09:45:25.492Z,18.39
2019-03-30T09:46:59.701Z,18.03
2019-03-30T09:48:34.017Z,18.15
2019-03-30T09:50:10.069Z,18.28
2019-03-30T09:51:44.358Z,18.42
2019-03-30T09:53:18.578Z,18.54
2019-03-30T09:54:52.806Z,18.71
2019-03-30T09:56:27.506Z,18.15
2019-03-30T09:58:01.710Z,18.24
2019-03-30T09:59:36.155Z,18.12
2019-03-30T10:01:10.698Z,18.03
2019-03-30T10:02:45.234Z,17.90
2019-03-30T10:04:19.538Z,18.14
2019-03-30T10:05:53.833Z,18.46
2019-03-30T10:07:28.150Z,18.52
2019-03-30T10:09:02.605Z,18.51
2019-03-30T10:10:36.905Z,18.71
2019-03-30T10:12:11.265Z,18.87
2019-03-30T10:13:45.583Z,18.89
2019-03-30T10:15:20.364Z,18.91
2019-03-30T10:16:56.169Z,19.06
2019-03-30T10:18:30.517Z,19.08
2019-03-30T10:20:07.347Z,18.68
2019-03-30T10:21:42.010Z,18.45
2019-03-30T10:23:16.427Z,18.53
2019-03-30T10:24:50.726Z,18.27
2019-03-30T10:26:25.015Z,18.37
2019-03-30T10:27:59.446Z,18.34
2019-03-30T10:29:33.730Z,18.51
2019-03-30T10:31:08.063Z,18.38
2019-03-30T10:32:42.383Z,18.28
2019-03-30T10:34:17.010Z,17.63
2019-03-30T10:35:54.188Z,17.25
2019-03-30T10:37:29.924Z,17.36
2019-03-30T10:39:05.662Z,17.28
2019-03-30T10:40:40.288Z,17.09
2019-03-30T10:42:14.540Z,16.97
2019-03-30T10:43:48.803Z,16.91
2019-03-30T10:45:23.017Z,16.71
2019-03-30T10:46:58.173Z,16.65
2019-03-30T10:48:32.492Z,16.54
2019-03-30T10:50:07.722Z,16.49
2019-03-30T10:51:45.214Z,16.52
2019-03-30T10:53:19.900Z,16.31
2019-03-30T10:54:54.123Z,15.98
2019-03-30T10:56:28.342Z,15.90
2019-03-30T10:58:02.710Z,15.74
2019-03-30T10:59:37.163Z,15.84
2019-03-30T11:01:11.395Z,15.91
2019-03-30T11:02:46.084Z,15.96
2019-03-30T11:04:20.407Z,15.48
2019-03-30T11:05:55.013Z,15.32
2019-03-30T11:07:29.296Z,15.23
2019-03-30T11:09:04.351Z,15.40
2019-03-30T11:10:38.593Z,15.44
2019-03-30T11:12:13.167Z,15.53
2019-03-30T11:13:47.386Z,15.61
2019-03-30T11:15:21.737Z,15.36
2019-03-30T11:16:55.996Z,15.36
2019-03-30T11:18:30.331Z,15.26
2019-03-30T11:20:05.512Z,15.44
2019-03-30T11:21:39.820Z,15.55
2019-03-30T11:23:14.146Z,15.64
2019-03-30T11:24:48.561Z,15.62
2019-03-30T11:26:22.880Z,15.53
2019-03-30T11:27:57.109Z,15.57
2019-03-30T11:29:31.413Z,15.62
2019-03-30T11:31:06.027Z,15.66
2019-03-30T11:32:40.261Z,15.64
2019-03-30T11:34:14.488Z,15.74
2019-03-30T11:35:48.837Z,15.70
2019-03-30T11:37:23.569Z,15.81
2019-03-30T11:38:57.846Z,15.78
2019-03-30T11:40:32.120Z,15.71
2019-03-30T11:42:06.361Z,15.74
2019-03-30T11:43:40.922Z,15.78
2019-03-30T11:45:15.189Z,15.75
2019-03-30T11:46:49.455Z,15.65
2019-03-30T11:48:23.689Z,15.64
2019-03-30T11:49:58.686Z,15.55
2019-03-30T11:51:33.041Z,15.50
2019-03-30T11:53:07.304Z,15.50
2019-03-30T11:54:41.524Z,15.59
2019-03-30T11:56:16.032Z,15.69
2019-03-30T11:57:50.270Z,15.86
2019-03-30T11:59:24.506Z,15.97
2019-03-30T12:00:58.774Z,15.91
2019-03-30T12:02:33.373Z,15.73
2019-03-30T12:04:07.683Z,15.69
2019-03-30T12:05:42.009Z,15.83
2019-03-30T12:07:16.326Z,15.96
2019-03-30T12:08:50.804Z,16.02
2019-03-30T12:10:25.111Z,15.92
2019-03-30T12:11:59.367Z,16.05
2019-03-30T12:13:33.701Z,16.17
2019-03-30T12:15:09.284Z,16.14
2019-03-30T12:16:43.509Z,16.01
2019-03-30T12:18:17.748Z,15.86
2019-03-30T12:19:52.051Z,15.82
2019-03-30T12:21:26.734Z,15.84
2019-03-30T12:23:00.987Z,16.02
2019-03-30T12:24:35.297Z,15.95
2019-03-30T12:26:09.630Z,15.80
2019-03-30T12:27:44.002Z,15.68
2019-03-30T12:29:18.292Z,15.66
2019-03-30T12:30:52.605Z,15.76
2019-03-30T12:32:26.841Z,15.83
2019-03-30T12:34:01.527Z,16.01
2019-03-30T12:35:35.793Z,16.08
2019-03-30T12:37:10.303Z,16.01
2019-03-30T12:38:44.559Z,15.62
2019-03-30T12:40:19.055Z,15.70
2019-03-30T12:41:53.318Z,15.87
2019-03-30T12:43:29.054Z,16.02
2019-03-30T12:45:04.334Z,16.04
2019-03-30T12:46:38.776Z,16.02
2019-03-30T12:48:13.080Z,15.95
2019-03-30T12:49:47.353Z,15.79
2019-03-30T12:51:21.571Z,15.82
2019-03-30T12:52:57.891Z,15.84
2019-03-30T12:54:32.114Z,15.95
2019-03-30T12:56:09.000Z,16.18
2019-03-30T12:57:43.566Z,16.30
2019-03-30T12:59:18.299Z,16.28
2019-03-30T13:00:52.570Z,16.32
2019-03-30T13:02:26.890Z,16.45
2019-03-30T13:04:01.286Z,16.32
2019-03-30T13:05:35.926Z,16.33
2019-03-30T13:07:10.240Z,16.15
2019-03-30T13:08:44.587Z,16.04
2019-03-30T13:10:18.923Z,16.07
2019-03-30T13:11:53.586Z,16.21
2019-03-30T13:13:27.941Z,16.06
2019-03-30T13:15:02.167Z,16.06
2019-03-30T13:16:36.481Z,15.89
2019-03-30T13:18:10.925Z,15.80
2019-03-30T13:19:45.149Z,15.79
2019-03-30T13:21:19.462Z,15.73
2019-03-30T13:22:53.682Z,15.75
2019-03-30T13:24:28.208Z,15.92
2019-03-30T13:26:03.740Z,15.94
2019-03-30T13:27:38.487Z,16.02
2019-03-30T13:29:14.233Z,16.14
2019-03-30T13:30:48.911Z,16.25
2019-03-30T13:32:23.280Z,16.36
2019-03-30T13:33:57.622Z,16.39
2019-03-30T13:35:31.934Z,16.50
2019-03-30T13:37:15.073Z,16.46
2019-03-30T13:38:49.339Z,16.32
2019-03-30T13:40:23.653Z,16.24
2019-03-30T13:41:57.913Z,16.18
2019-03-30T13:43:32.416Z,16.31
2019-03-30T13:45:09.886Z,16.48
2019-03-30T13:46:44.304Z,16.66
2019-03-30T13:48:18.662Z,17.02
2019-03-30T13:49:53.080Z,17.22
2019-03-30T13:51:27.351Z,17.25
2019-03-30T13:53:01.646Z,16.91
2019-03-30T13:54:38.634Z,16.92
2019-03-30T13:56:17.478Z,17.10
2019-03-30T13:57:48.489Z,17.29
2019-03-30T13:59:22.935Z,17.54
2019-03-30T14:00:57.255Z,17.62
2019-03-30T14:02:33.264Z,17.82
2019-03-30T14:04:07.528Z,17.98
2019-03-30T14:05:41.990Z,17.99
2019-03-30T14:07:16.281Z,18.11
2019-03-30T14:08:50.912Z,17.75
2019-03-30T14:10:27.253Z,17.54
2019-03-30T14:12:03.045Z,17.26
2019-03-30T14:13:37.357Z,17.25
2019-03-30T14:15:12.047Z,17.28
2019-03-30T14:16:46.295Z,17.42
2019-03-30T14:18:20.586Z,17.34
2019-03-30T14:19:55.296Z,17.23
2019-03-30T14:21:30.019Z,17.27
2019-03-30T14:23:04.278Z,17.35
2019-03-30T14:24:38.520Z,17.34
2019-03-30T14:26:12.869Z,17.36
2019-03-30T14:27:47.980Z,17.37
2019-03-30T14:29:22.259Z,17.20
2019-03-30T14:30:56.536Z,17.10
2019-03-30T14:32:30.791Z,17.17
2019-03-30T14:34:05.319Z,17.20
2019-03-30T14:35:39.551Z,17.30
2019-03-30T14:37:13.794Z,17.26
2019-03-30T14:38:48.129Z,17.36
2019-03-30T14:40:22.658Z,17.36
2019-03-30T14:41:58.539Z,17.38
2019-03-30T14:43:32.773Z,17.32
2019-03-30T14:45:10.727Z,17.36
2019-03-30T14:46:45.224Z,17.50
2019-03-30T14:48:19.541Z,17.51
2019-03-30T14:49:53.847Z,17.53
2019-03-30T14:51:28.177Z,17.51
2019-03-30T14:53:02.805Z,17.56
2019-03-30T14:54:37.123Z,17.32
2019-03-30T14:56:12.378Z,17.02
2019-03-30T14:57:46.613Z,17.00
2019-03-30T14:59:20.968Z,16.88
2019-03-30T15:00:55.297Z,16.81
2019-03-30T15:02:33.668Z,16.68
2019-03-30T15:04:07.961Z,16.50
2019-03-30T15:05:42.502Z,16.30
2019-03-30T15:07:16.777Z,16.14
2019-03-30T15:08:51.007Z,16.22
2019-03-30T15:10:26.696Z,16.17
2019-03-30T15:12:01.165Z,16.22
2019-03-30T15:13:35.601Z,16.32
2019-03-30T15:15:10.620Z,16.31
2019-03-30T15:16:44.964Z,16.28
2019-03-30T15:18:19.532Z,16.24
2019-03-30T15:19:53.859Z,16.27
2019-03-30T15:21:29.275Z,16.35
2019-03-30T15:23:03.528Z,16.40
2019-03-30T15:24:38.003Z,16.44
2019-03-30T15:26:12.319Z,16.40
2019-03-30T15:27:46.554Z,16.26
2019-03-30T15:29:20.971Z,16.21
2019-03-30T15:30:55.573Z,16.27
2019-03-30T15:32:29.800Z,16.32
2019-03-30T15:34:04.062Z,16.36
2019-03-30T15:35:38.373Z,16.15
2019-03-30T15:37:12.920Z,16.08
2019-03-30T15:38:47.177Z,16.11
2019-03-30T15:40:21.502Z,16.04
2019-03-30T15:41:55.730Z,16.00
2019-03-30T15:43:37.937Z,15.92
2019-03-30T15:45:10.632Z,15.85
2019-03-30T15:46:44.946Z,15.71
2019-03-30T15:48:19.207Z,15.48
2019-03-30T15:49:53.843Z,15.38
2019-03-30T15:51:28.176Z,15.36
2019-03-30T15:53:02.581Z,15.28
2019-03-30T15:54:37.329Z,15.26
2019-03-30T15:56:12.070Z,15.23
2019-03-30T15:57:46.290Z,15.18
2019-03-30T15:59:20.516Z,15.16
2019-03-30T16:00:54.837Z,15.12
2019-03-30T16:02:29.193Z,15.00
2019-03-30T16:04:03.602Z,14.94
2019-03-30T16:05:37.910Z,14.85
2019-03-30T16:07:12.266Z,14.74
2019-03-30T16:08:46.586Z,14.67
2019-03-30T16:10:20.897Z,14.61
2019-03-30T16:11:55.131Z,14.56
2019-03-30T16:13:29.463Z,14.15
2019-03-30T16:15:05.774Z,14.49
2019-03-30T16:16:40.022Z,14.44
2019-03-30T16:18:14.335Z,14.40
2019-03-30T16:19:48.661Z,14.36
2019-03-30T16:21:23.375Z,14.33
2019-03-30T16:22:57.767Z,14.28
2019-03-30T16:24:33.466Z,14.25
2019-03-30T16:26:07.761Z,14.20
2019-03-30T16:27:42.326Z,14.13
2019-03-30T16:29:19.649Z,14.07
2019-03-30T16:30:54.574Z,13.99
2019-03-30T16:32:28.785Z,13.92
2019-03-30T16:34:03.339Z,13.86
2019-03-30T16:35:37.552Z,13.78
2019-03-30T16:37:11.821Z,13.73
2019-03-30T16:38:46.147Z,13.66
2019-03-30T16:40:20.511Z,13.59
2019-03-30T16:41:54.731Z,13.51
2019-03-30T16:43:29.058Z,13.44
2019-03-30T16:45:03.822Z,13.36
2019-03-30T16:46:40.099Z,13.27
2019-03-30T16:48:14.809Z,13.21
2019-03-30T16:49:49.202Z,13.16
2019-03-30T16:51:23.452Z,13.09
2019-03-30T16:52:57.922Z,13.03
2019-03-30T16:54:32.219Z,12.96
2019-03-30T16:56:07.729Z,12.87
2019-03-30T16:57:44.070Z,12.78
2019-03-30T16:59:18.596Z,12.69
2019-03-30T17:00:56.678Z,12.62
2019-03-30T17:02:29.505Z,12.53
2019-03-30T17:04:06.538Z,12.44
2019-03-30T17:05:42.904Z,12.36
2019-03-30T17:07:18.245Z,12.30
2019-03-30T17:08:54.489Z,12.22
2019-03-30T17:10:28.730Z,12.15
2019-03-30T17:12:03.324Z,12.09
2019-03-30T17:13:39.147Z,12.04
2019-03-30T17:15:13.505Z,11.98
2019-03-30T17:16:47.797Z,11.92
2019-03-30T17:18:22.378Z,11.84
2019-03-30T17:19:58.136Z,11.77
2019-03-30T17:21:34.084Z,11.69
2019-03-30T17:23:08.330Z,11.62
2019-03-30T17:24:42.966Z,11.55
2019-03-30T17:26:18.463Z,11.48
2019-03-30T17:27:58.946Z,11.43
2019-03-30T17:29:33.444Z,11.36
2019-03-30T17:31:11.209Z,11.32
2019-03-30T17:32:46.938Z,11.28
2019-03-30T17:34:21.306Z,11.23
2019-03-30T17:35:56.028Z,11.19
2019-03-30T17:37:32.699Z,11.16
2019-03-30T17:39:11.467Z,11.11
2019-03-30T17:40:46.613Z,11.04
2019-03-30T17:42:24.066Z,10.98
2019-03-30T17:43:58.711Z,10.90
2019-03-30T17:45:33.994Z,10.83
2019-03-30T17:47:10.879Z,10.76
2019-03-30T17:48:46.604Z,10.68
2019-03-30T17:50:21.272Z,10.61
2019-03-30T17:51:55.617Z,10.51
2019-03-30T17:53:29.940Z,10.40
2019-03-30T17:55:04.637Z,10.31
2019-03-30T17:56:39.160Z,10.24
2019-03-30T17:58:13.784Z,10.18
2019-03-30T17:59:48.486Z,10.16
2019-03-30T18:01:22.768Z,10.11
2019-03-30T18:02:57.323Z,10.07
2019-03-30T18:04:31.655Z,10.01
2019-03-30T18:06:06.005Z,9.98
2019-03-30T18:07:40.265Z,9.95
2019-03-30T18:09:16.297Z,9.90
2019-03-30T18:10:50.618Z,9.82
2019-03-30T18:12:24.922Z,9.77
2019-03-30T18:13:59.275Z,9.71
2019-03-30T18:15:34.882Z,9.67
2019-03-30T18:17:09.703Z,9.62
2019-03-30T18:18:43.963Z,9.13
2019-03-30T18:20:18.344Z,9.54
2019-03-30T18:21:54.784Z,9.51
2019-03-30T18:23:29.091Z,9.47
2019-03-30T18:25:03.406Z,9.43
2019-03-30T18:26:37.846Z,9.38
2019-03-30T18:28:26.247Z,9.32
2019-03-30T18:29:48.205Z,9.26
2019-03-30T18:31:22.515Z,9.20
2019-03-30T18:32:56.249Z,9.12
2019-03-30T18:34:31.545Z,9.04
2019-03-30T18:36:06.239Z,8.97
2019-03-30T18:37:40.848Z,8.92
2019-03-30T18:39:15.113Z,8.83
2019-03-30T18:40:49.679Z,8.68
2019-03-30T18:42:24.031Z,8.56
2019-03-30T18:43:57.937Z,8.41
2019-03-30T18:45:32.301Z,8.29
2019-03-30T18:47:06.826Z,8.20
2019-03-30T18:48:41.098Z,8.12
2019-03-30T18:50:15.325Z,8.05
2019-03-30T18:51:50.392Z,8.02
2019-03-30T18:53:24.816Z,7.98
2019-03-30T18:54:59.468Z,7.95
2019-03-30T18:56:33.772Z,7.92
2019-03-30T18:58:08.010Z,7.84
2019-03-30T18:59:42.381Z,7.79
2019-03-30T19:01:16.720Z,7.74
2019-03-30T19:02:52.319Z,7.69
2019-03-30T19:04:26.591Z,7.68
2019-03-30T19:06:01.108Z,7.64
2019-03-30T19:07:35.379Z,7.59
2019-03-30T19:09:09.706Z,7.55
2019-03-30T19:10:43.913Z,7.51
2019-03-30T19:12:19.003Z,7.42
2019-03-30T19:13:53.352Z,7.33
2019-03-30T19:15:27.578Z,7.29
2019-03-30T19:17:03.351Z,7.28
2019-03-30T19:18:37.829Z,7.26
2019-03-30T19:20:12.156Z,7.16
2019-03-30T19:21:46.495Z,7.24
2019-03-30T19:23:21.682Z,7.22
2019-03-30T19:24:56.198Z,7.19
2019-03-30T19:26:30.453Z,7.18
2019-03-30T19:28:04.744Z,7.15
2019-03-30T19:29:39.110Z,7.13
2019-03-30T19:31:13.143Z,7.11
2019-03-30T19:32:47.359Z,7.09
2019-03-30T19:34:21.673Z,7.09
2019-03-30T19:35:56.411Z,7.09
2019-03-30T19:37:31.418Z,7.08
2019-03-30T19:39:09.905Z,7.06
2019-03-30T19:40:43.602Z,7.00
2019-03-30T19:42:17.874Z,6.97
2019-03-30T19:43:55.241Z,6.92
2019-03-30T19:45:30.235Z,6.85
2019-03-30T19:47:03.927Z,6.75
2019-03-30T19:48:39.505Z,6.66
2019-03-30T19:50:15.483Z,6.57
2019-03-30T19:51:49.772Z,6.49
2019-03-30T19:53:23.542Z,6.41
2019-03-30T19:54:57.746Z,6.36
2019-03-30T19:56:32.460Z,6.31
2019-03-30T19:58:06.813Z,6.26
2019-03-30T19:59:40.456Z,6.23
2019-03-30T20:01:14.755Z,6.21
2019-03-30T20:02:48.914Z,6.19
2019-03-30T20:04:24.013Z,6.17
2019-03-30T20:05:58.744Z,6.17
2019-03-30T20:07:32.995Z,6.12
2019-03-30T20:09:09.002Z,6.11
2019-03-30T20:10:43.373Z,6.10
2019-03-30T20:12:17.725Z,6.08
2019-03-30T20:13:51.415Z,6.05
2019-03-30T20:15:26.134Z,6.04
2019-03-30T20:17:00.459Z,6.01
2019-03-30T20:18:34.723Z,5.98
2019-03-30T20:20:09.782Z,5.94
2019-03-30T20:21:43.914Z,5.89
2019-03-30T20:23:19.112Z,5.85
2019-03-30T20:24:53.397Z,5.84
2019-03-30T20:26:27.898Z,5.83
2019-03-30T20:28:02.603Z,5.80
2019-03-30T20:29:36.314Z,5.77
2019-03-30T20:31:10.010Z,5.78
2019-03-30T20:32:49.218Z,5.77
2019-03-30T20:34:23.105Z,5.77
2019-03-30T20:35:56.730Z,5.75
2019-03-30T20:37:30.392Z,5.76
2019-03-30T20:39:08.224Z,5.74